createdAt,value
2022-11-23T00:01:44.023Z,63.53
2022-11-23T00:04:13.967Z,65.17
2022-11-23T00:06:42.292Z,65.44
2022-11-23T00:09:11.668Z,64.85
2022-11-23T00:11:40.077Z,64.46
2022-11-23T00:14:07.575Z,65.48
2022-11-23T00:16:35.200Z,65.07
2022-11-23T00:19:03.850Z,64.64
2022-11-23T00:21:33.258Z,64.15
2022-11-23T00:24:01.388Z,64.92
2022-11-23T00:26:29.153Z,64.63
2022-11-23T00:28:57.058Z,64.62
2022-11-23T00:31:27.655Z,64.18
2022-11-23T00:33:57.485Z,64.83
2022-11-23T00:36:27.945Z,65.62
2022-11-23T00:38:56.354Z,64.46
2022-11-23T00:41:28.888Z,64.11
2022-11-23T00:44:12.994Z,64.47
2022-11-23T00:46:40.649Z,64.00
2022-11-23T00:49:08.268Z,63.96
2022-11-23T00:51:38.017Z,63.42
2022-11-23T00:54:06.693Z,63.38
2022-11-23T00:56:36.065Z,64.20
2022-11-23T00:59:06.739Z,63.22
2022-11-23T01:01:39.452Z,62.18
2022-11-23T01:04:10.255Z,62.34
2022-11-23T01:06:40.847Z,62.96
2022-11-23T01:09:18.500Z,63.24
2022-11-23T01:11:46.200Z,62.84
2022-11-23T01:14:13.846Z,63.17
2022-11-23T01:16:42.449Z,62.33
2022-11-23T01:19:19.223Z,62.45
2022-11-23T01:21:50.283Z,61.69
2022-11-23T01:24:23.483Z,60.66
2022-11-23T01:26:55.642Z,61.70
2022-11-23T01:29:33.808Z,60.78
2022-11-23T01:32:04.864Z,60.32
2022-11-23T01:34:38.259Z,61.26
2022-11-23T01:37:06.297Z,62.16
2022-11-23T01:39:33.984Z,61.89
2022-11-23T01:42:03.019Z,61.68
2022-11-23T01:44:36.820Z,61.33
2022-11-23T01:47:09.683Z,61.49
2022-11-23T01:49:50.048Z,62.03
2022-11-23T01:52:26.831Z,61.91
2022-11-23T01:54:59.884Z,61.95
2022-11-23T01:57:40.938Z,61.57
2022-11-23T02:00:13.560Z,60.58
2022-11-23T02:02:55.611Z,60.50
2022-11-23T02:05:34.142Z,61.59
2022-11-23T02:08:03.208Z,60.61
2022-11-23T02:10:34.200Z,61.25
2022-11-23T02:13:11.760Z,61.97
2022-11-23T02:15:40.683Z,61.62
2022-11-23T02:18:19.924Z,61.50
2022-11-23T02:20:50.980Z,61.61
2022-11-23T02:24:04.070Z,61.61
2022-11-23T02:26:37.170Z,60.34
2022-11-23T02:29:28.217Z,60.74
2022-11-23T02:31:58.390Z,62.61
2022-11-23T02:34:25.908Z,62.36
2022-11-23T02:36:57.730Z,61.32
2022-11-23T02:39:43.036Z,61.74
2022-11-23T02:42:11.114Z,61.59
2022-11-23T02:45:13.017Z,61.03
2022-11-23T02:47:43.234Z,60.50
2022-11-23T02:50:12.447Z,61.23
2022-11-23T02:52:43.340Z,61.10
2022-11-23T02:55:11.304Z,61.35
2022-11-23T02:57:38.889Z,62.00
2022-11-23T03:00:07.933Z,61.94
2022-11-23T03:02:35.385Z,62.88
2022-11-23T03:05:03.203Z,64.12
2022-11-23T03:07:33.146Z,64.05
2022-11-23T03:10:00.923Z,63.89
2022-11-23T03:12:28.561Z,63.43
2022-11-23T03:14:56.355Z,63.66
2022-11-23T03:17:25.034Z,62.93
2022-11-23T03:19:52.347Z,64.23
2022-11-23T03:22:20.053Z,65.72
2022-11-23T03:24:47.865Z,66.12
2022-11-23T03:27:17.116Z,65.43
2022-11-23T03:29:45.652Z,65.99
2022-11-23T03:32:19.125Z,65.91
2022-11-23T03:34:51.927Z,66.41
2022-11-23T03:37:21.158Z,66.17
2022-11-23T03:39:49.193Z,65.59
2022-11-23T03:42:35.780Z,65.45
2022-11-23T03:45:03.889Z,65.27
2022-11-23T03:47:31.378Z,65.01
2022-11-23T03:49:58.939Z,65.20
2022-11-23T03:52:27.670Z,64.47
2022-11-23T03:54:56.066Z,64.62
2022-11-23T03:57:23.694Z,63.81
2022-11-23T03:59:54.870Z,63.63
2022-11-23T04:02:22.830Z,63.79
2022-11-23T04:05:02.012Z,62.18
2022-11-23T04:07:51.213Z,61.07
2022-11-23T04:10:20.802Z,61.03
2022-11-23T04:13:20.822Z,61.96
2022-11-23T04:15:48.332Z,62.15
2022-11-23T04:18:16.089Z,62.61
2022-11-23T04:20:43.724Z,62.03
2022-11-23T04:23:14.198Z,61.46
2022-11-23T04:25:44.227Z,61.37
2022-11-23T04:28:12.636Z,62.05
2022-11-23T04:30:50.331Z,62.12
2022-11-23T04:33:19.013Z,61.05
2022-11-23T04:35:46.514Z,60.09
2022-11-23T04:38:14.923Z,60.91
2022-11-23T04:40:43.468Z,62.35
2022-11-23T04:43:11.814Z,62.86
2022-11-23T04:45:41.319Z,62.66
2022-11-23T04:48:15.778Z,62.51
2022-11-23T04:50:46.734Z,62.22
2022-11-23T04:53:21.071Z,61.84
2022-11-23T04:55:48.821Z,61.84
2022-11-23T04:58:17.498Z,61.55
2022-11-23T05:00:46.924Z,61.26
2022-11-23T05:03:15.596Z,61.75
2022-11-23T05:05:43.898Z,61.91
2022-11-23T05:08:11.483Z,61.57
2022-11-23T05:10:48.885Z,61.84
2022-11-23T05:13:16.274Z,60.96
2022-11-23T05:15:44.962Z,60.67
2022-11-23T05:18:16.372Z,60.33
2022-11-23T05:20:46.062Z,61.55
2022-11-23T05:23:15.045Z,62.51
2022-11-23T05:25:44.728Z,62.68
2022-11-23T05:28:39.104Z,64.85
2022-11-23T05:31:06.916Z,65.46
2022-11-23T05:33:34.609Z,66.07
2022-11-23T05:36:04.742Z,65.94
2022-11-23T05:38:37.434Z,65.44
2022-11-23T05:41:10.909Z,64.77
2022-11-23T05:43:41.194Z,64.31
2022-11-23T05:46:11.925Z,64.81
2022-11-23T05:48:39.621Z,64.09
2022-11-23T05:51:10.209Z,64.84
2022-11-23T05:53:42.028Z,65.60
2022-11-23T05:56:16.914Z,64.70
2022-11-23T05:58:59.252Z,64.14
2022-11-23T06:01:29.118Z,64.61
2022-11-23T06:04:00.555Z,64.78
2022-11-23T06:06:36.327Z,64.73
2022-11-23T06:09:04.539Z,64.73
2022-11-23T06:11:33.498Z,64.86
2022-11-23T06:14:09.975Z,65.11
2022-11-23T06:16:40.230Z,65.10
2022-11-23T06:19:20.331Z,65.38
2022-11-23T06:21:50.553Z,65.44
2022-11-23T06:24:24.092Z,64.17
2022-11-23T06:27:14.006Z,64.22
2022-11-23T06:29:45.199Z,64.46
2022-11-23T06:32:12.747Z,64.07
2022-11-23T06:34:40.088Z,65.14
2022-11-23T06:37:07.355Z,65.26
2022-11-23T06:39:35.789Z,67.41
2022-11-23T06:42:30.921Z,67.04
2022-11-23T06:44:52.762Z,66.07
2022-11-23T06:47:26.263Z,65.29
2022-11-23T06:49:54.035Z,66.02
2022-11-23T06:52:28.518Z,65.27
2022-11-23T06:54:56.002Z,65.15
2022-11-23T06:57:25.392Z,65.33
2022-11-23T06:59:53.948Z,64.83
2022-11-23T07:02:27.149Z,64.06
2022-11-23T07:04:57.323Z,64.39
2022-11-23T07:07:25.674Z,64.27
2022-11-23T07:10:06.814Z,63.79
2022-11-23T07:12:45.574Z,64.24
2022-11-23T07:15:14.902Z,64.44
2022-11-23T07:17:44.711Z,64.74
2022-11-23T07:20:13.815Z,65.43
2022-11-23T07:22:41.573Z,65.05
2022-11-23T07:25:09.696Z,65.03
2022-11-23T07:27:37.662Z,66.63
2022-11-23T07:30:06.893Z,65.31
2022-11-23T07:32:34.378Z,65.42
2022-11-23T07:35:01.680Z,64.50
2022-11-23T07:37:30.550Z,64.81
2022-11-23T07:39:58.616Z,65.51
2022-11-23T07:42:34.674Z,65.40
2022-11-23T07:45:06.995Z,63.58
2022-11-23T07:47:36.915Z,65.56
2022-11-23T07:50:07.045Z,66.20
2022-11-23T07:52:36.236Z,65.25
2022-11-23T07:55:04.645Z,65.24
2022-11-23T07:57:32.188Z,64.91
2022-11-23T07:59:59.431Z,63.34
2022-11-23T08:02:26.698Z,64.01
2022-11-23T08:04:53.871Z,63.15
2022-11-23T08:07:21.178Z,63.31
2022-11-23T08:10:14.166Z,61.47
2022-11-23T08:12:42.700Z,61.29
2022-11-23T08:15:12.724Z,61.04
2022-11-23T08:17:43.440Z,61.42
2022-11-23T08:20:11.808Z,62.37
2022-11-23T08:22:39.125Z,63.13
2022-11-23T08:25:06.940Z,62.77
2022-11-23T08:27:38.369Z,61.43
2022-11-23T08:30:14.740Z,60.90
2022-11-23T08:32:42.009Z,61.68
2022-11-23T08:35:09.712Z,61.06
2022-11-23T08:37:36.971Z,60.25
2022-11-23T08:40:04.716Z,59.63
2022-11-23T08:42:31.962Z,60.30
2022-11-23T08:45:00.227Z,59.70
2022-11-23T08:47:27.711Z,59.45
2022-11-23T08:49:55.162Z,59.37
2022-11-23T08:52:22.345Z,57.90
2022-11-23T08:54:49.533Z,57.21
2022-11-23T08:57:16.807Z,57.87
2022-11-23T08:59:43.984Z,56.66
2022-11-23T09:02:13.965Z,50.65
2022-11-23T09:04:41.731Z,42.15
2022-11-23T09:07:09.200Z,39.29
2022-11-23T09:09:36.689Z,34.50
2022-11-23T09:12:04.882Z,31.67
2022-11-23T09:14:33.181Z,30.66
2022-11-23T09:17:03.272Z,27.96
2022-11-23T09:19:30.766Z,27.22
2022-11-23T09:21:58.127Z,26.25
2022-11-23T09:24:26.196Z,26.30
2022-11-23T09:26:53.697Z,25.55
2022-11-23T09:29:21.002Z,24.86
2022-11-23T09:31:48.133Z,23.86
2022-11-23T09:34:15.358Z,24.13
2022-11-23T09:36:42.628Z,23.12
2022-11-23T09:39:11.414Z,22.92
2022-11-23T09:42:09.507Z,23.87
2022-11-23T09:45:10.888Z,22.52
2022-11-23T09:48:07.170Z,22.46
2022-11-23T09:51:05.627Z,23.20
2022-11-23T09:53:49.600Z,22.11
2022-11-23T09:56:58.481Z,21.65
2022-11-23T09:59:45.026Z,20.98
2022-11-23T10:02:28.778Z,19.83
2022-11-23T10:05:00.032Z,19.94
2022-11-23T10:08:14.840Z,20.58
2022-11-23T10:10:57.270Z,19.97
2022-11-23T10:13:44.059Z,18.78
2022-11-23T10:16:40.782Z,18.38
2022-11-23T10:19:16.979Z,20.35
2022-11-23T10:22:24.422Z,19.69
2022-11-23T10:24:53.986Z,19.51
2022-11-23T10:27:24.534Z,20.70
2022-11-23T10:29:56.513Z,20.17
2022-11-23T10:33:05.443Z,19.28
2022-11-23T10:35:35.224Z,20.97
2022-11-23T10:38:19.677Z,20.57
2022-11-23T10:41:10.573Z,21.01
2022-11-23T10:44:01.474Z,23.65
2022-11-23T10:46:37.968Z,21.29
2022-11-23T10:49:30.148Z,20.60
2022-11-23T10:52:33.405Z,20.13
2022-11-23T10:55:32.357Z,20.08
2022-11-23T10:58:01.230Z,19.97
2022-11-23T11:00:31.122Z,19.56
2022-11-23T11:03:12.428Z,19.31
2022-11-23T11:06:11.590Z,19.18
2022-11-23T11:09:03.710Z,19.99
2022-11-23T11:11:38.957Z,20.40
2022-11-23T11:14:19.511Z,21.71
2022-11-23T11:16:56.693Z,20.34
2022-11-23T11:19:32.484Z,19.54
2022-11-23T11:22:05.288Z,20.50
2022-11-23T11:24:44.841Z,20.97
2022-11-23T11:27:24.759Z,20.80
2022-11-23T11:29:59.507Z,20.43
2022-11-23T11:33:07.077Z,20.44
2022-11-23T11:35:41.164Z,20.87
2022-11-23T11:38:34.147Z,21.79
2022-11-23T11:41:13.487Z,23.55
2022-11-23T11:44:02.593Z,22.61
2022-11-23T11:46:40.785Z,20.42
2022-11-23T11:49:29.167Z,20.03
2022-11-23T11:52:22.235Z,20.83
2022-11-23T11:55:07.331Z,22.18
2022-11-23T11:57:45.894Z,22.20
2022-11-23T12:00:21.135Z,22.46
2022-11-23T12:03:10.522Z,22.56
2022-11-23T12:05:54.878Z,21.53
2022-11-23T12:08:41.038Z,23.17
2022-11-23T12:11:12.879Z,23.35
2022-11-23T12:13:46.814Z,23.68
2022-11-23T12:17:31.907Z,23.16
2022-11-23T12:20:15.783Z,24.83
2022-11-23T12:23:42.396Z,23.77
2022-11-23T12:26:24.604Z,22.81
2022-11-23T12:29:35.320Z,22.76
2022-11-23T12:32:46.448Z,23.25
2022-11-23T12:35:56.748Z,22.61
2022-11-23T12:39:22.632Z,23.05
2022-11-23T12:42:17.550Z,24.87
2022-11-23T12:45:32.983Z,23.17
2022-11-23T12:48:23.973Z,25.14
2022-11-23T12:51:58.253Z,25.71
2022-11-23T12:55:20.655Z,26.32
2022-11-23T12:58:12.380Z,27.20
2022-11-23T13:00:50.709Z,27.60
2022-11-23T13:03:45.932Z,27.45
2022-11-23T13:07:26.900Z,27.55
2022-11-23T13:10:06.134Z,28.07
2022-11-23T13:13:31.886Z,27.89
2022-11-23T13:16:35.658Z,28.21
2022-11-23T13:19:47.011Z,28.27
2022-11-23T13:22:22.520Z,29.93
2022-11-23T13:25:12.845Z,29.87
2022-11-23T13:27:49.332Z,31.65
2022-11-23T13:33:38.555Z,34.52
2022-11-23T13:36:15.311Z,34.71
2022-11-23T13:38:46.017Z,34.72
2022-11-23T13:41:35.276Z,35.11
2022-11-23T13:44:31.569Z,34.11
2022-11-23T13:47:29.651Z,34.73
2022-11-23T13:50:19.649Z,34.63
2022-11-23T13:52:52.314Z,35.63
2022-11-23T13:55:27.867Z,35.20
2022-11-23T13:58:23.561Z,35.25
2022-11-23T14:00:59.866Z,36.18
2022-11-23T14:03:50.124Z,36.57
2022-11-23T14:07:07.374Z,36.17
2022-11-23T14:10:29.897Z,36.55
2022-11-23T14:13:20.213Z,36.43
2022-11-23T14:15:59.487Z,35.66
2022-11-23T14:19:14.385Z,36.17
2022-11-23T14:22:45.632Z,35.77
2022-11-23T14:26:05.011Z,35.01
2022-11-23T14:29:22.085Z,35.82
2022-11-23T14:32:50.383Z,36.16
2022-11-23T14:35:59.348Z,35.35
2022-11-23T14:39:21.639Z,35.42
2022-11-23T14:41:59.877Z,35.60
2022-11-23T14:44:34.130Z,34.99
2022-11-23T14:47:08.432Z,36.49
2022-11-23T14:49:38.062Z,34.74
2022-11-23T14:52:06.351Z,35.34
2022-11-23T14:54:35.263Z,35.90
2022-11-23T14:57:05.529Z,37.48
2022-11-23T14:59:41.896Z,37.70
2022-11-23T15:02:19.163Z,37.96
2022-11-23T15:05:07.004Z,40.29
2022-11-23T15:07:57.286Z,39.55
2022-11-23T15:10:43.094Z,39.75
2022-11-23T15:13:23.336Z,41.01
2022-11-23T15:15:55.753Z,40.18
2022-11-23T15:18:39.521Z,40.67
2022-11-23T15:21:12.967Z,40.41
2022-11-23T15:23:57.307Z,41.10
2022-11-23T15:29:37.929Z,40.99
2022-11-23T15:32:31.190Z,40.89
2022-11-23T15:35:07.465Z,40.89
2022-11-23T15:37:47.018Z,41.32
2022-11-23T15:40:18.525Z,41.27
2022-11-23T15:42:51.054Z,42.42
2022-11-23T15:45:37.223Z,41.56
2022-11-23T15:48:18.817Z,41.78
2022-11-23T15:51:03.100Z,42.18
2022-11-23T15:53:44.253Z,41.93
2022-11-23T15:56:39.837Z,42.32
2022-11-23T15:59:54.670Z,42.66
2022-11-23T16:02:26.363Z,43.27
2022-11-23T16:05:19.401Z,43.99
2022-11-23T16:08:00.344Z,43.66
2022-11-23T16:10:37.528Z,43.17
2022-11-23T16:13:08.868Z,43.68
2022-11-23T16:15:41.665Z,43.61
2022-11-23T16:18:25.163Z,43.47
2022-11-23T16:20:59.869Z,43.90
2022-11-23T16:23:56.480Z,43.64
2022-11-23T16:26:34.617Z,42.78
2022-11-23T16:29:03.746Z,42.25
2022-11-23T16:31:43.302Z,43.34
2022-11-23T16:34:18.686Z,43.30
2022-11-23T16:36:46.481Z,43.09
2022-11-23T16:39:27.759Z,42.46
2022-11-23T16:42:23.037Z,42.23
2022-11-23T16:45:02.315Z,43.66
2022-11-23T16:47:30.715Z,42.38
2022-11-23T16:50:09.115Z,42.83
2022-11-23T16:53:12.128Z,43.08
2022-11-23T16:56:06.710Z,43.68
2022-11-23T16:58:51.683Z,43.12
2022-11-23T17:01:55.455Z,42.74
2022-11-23T17:04:43.335Z,43.21
2022-11-23T17:07:54.825Z,45.54
2022-11-23T17:10:48.340Z,48.27
2022-11-23T17:17:04.859Z,49.26
2022-11-23T17:23:47.826Z,52.94
2022-11-23T17:26:48.189Z,52.84
2022-11-23T17:29:44.117Z,56.24
2022-11-23T17:32:40.709Z,58.91
2022-11-23T17:35:49.824Z,60.00
2022-11-23T17:38:38.383Z,60.70
2022-11-23T17:41:15.789Z,63.60
2022-11-23T17:43:56.370Z,65.93
2022-11-23T17:46:24.848Z,66.11
2022-11-23T17:48:57.861Z,67.27
2022-11-23T17:51:25.761Z,67.39
2022-11-23T17:53:53.020Z,67.03
2022-11-23T17:56:29.923Z,65.65
2022-11-23T17:59:06.947Z,67.58
2022-11-23T18:01:50.510Z,68.79
2022-11-23T18:04:23.204Z,68.60
2022-11-23T18:07:09.653Z,67.39
2022-11-23T18:09:43.882Z,68.06
2022-11-23T18:12:21.911Z,67.19
2022-11-23T18:15:02.747Z,68.43
2022-11-23T18:17:42.232Z,65.82
2022-11-23T18:20:23.059Z,68.54
2022-11-23T18:23:09.965Z,68.44
2022-11-23T18:26:13.326Z,70.71
2022-11-23T18:29:16.844Z,69.38
2022-11-23T18:31:47.706Z,71.45
2022-11-23T18:34:24.117Z,70.98
2022-11-23T18:39:47.664Z,69.57
2022-11-23T18:42:24.361Z,67.50
2022-11-23T18:45:02.141Z,68.64
2022-11-23T18:47:29.400Z,69.85
2022-11-23T18:50:07.103Z,69.59
2022-11-23T18:52:47.401Z,68.96
2022-11-23T18:55:17.718Z,69.73
2022-11-23T19:00:45.634Z,69.10
2022-11-23T19:03:15.847Z,69.45
2022-11-23T19:05:43.028Z,69.38
2022-11-23T19:08:16.682Z,69.73
2022-11-23T19:10:56.230Z,70.22
2022-11-23T19:13:26.517Z,70.20
2022-11-23T19:16:16.156Z,69.89
2022-11-23T19:18:45.117Z,68.47
2022-11-23T19:21:38.012Z,69.92
2022-11-23T19:24:07.321Z,70.66
2022-11-23T19:26:34.769Z,69.84
2022-11-23T19:29:10.574Z,70.00
2022-11-23T19:31:50.709Z,70.62
2022-11-23T19:34:22.329Z,70.49
2022-11-23T19:36:49.687Z,70.27
2022-11-23T19:39:23.721Z,71.04
2022-11-23T19:41:51.423Z,70.44
2022-11-23T19:44:18.991Z,70.67
2022-11-23T19:46:46.241Z,70.28
2022-11-23T19:49:13.528Z,70.40
2022-11-23T19:51:40.759Z,70.23
2022-11-23T19:54:09.865Z,70.33
2022-11-23T19:56:37.307Z,69.30
2022-11-23T19:59:04.956Z,69.51
2022-11-23T20:01:32.896Z,68.99
2022-11-23T20:04:08.835Z,69.22
2022-11-23T20:06:42.451Z,68.54
2022-11-23T20:09:23.396Z,69.17
2022-11-23T20:11:51.691Z,69.91
2022-11-23T20:14:19.837Z,69.70
2022-11-23T20:16:47.894Z,69.82
2022-11-23T20:19:17.473Z,69.36
2022-11-23T20:21:47.029Z,68.34
2022-11-23T20:24:14.864Z,68.80
2022-11-23T20:26:43.242Z,68.84
2022-11-23T20:29:11.656Z,69.63
2022-11-23T20:31:39.308Z,69.49
2022-11-23T20:34:09.233Z,70.18
2022-11-23T20:36:38.981Z,69.15
2022-11-23T20:39:10.969Z,69.85
2022-11-23T20:41:38.805Z,69.84
2022-11-23T20:44:15.554Z,71.52
2022-11-23T20:49:32.029Z,71.42
2022-11-23T20:52:00.331Z,70.93
2022-11-23T20:54:27.656Z,71.99
2022-11-23T20:56:54.947Z,71.58
2022-11-23T20:59:23.826Z,70.80
2022-11-23T21:01:52.394Z,70.93
2022-11-23T21:04:19.587Z,70.21
2022-11-23T21:06:47.234Z,70.95
2022-11-23T21:09:16.148Z,70.52
2022-11-23T21:12:02.447Z,70.55
2022-11-23T21:14:31.730Z,70.39
2022-11-23T21:17:00.748Z,70.14
2022-11-23T21:19:37.669Z,69.42
2022-11-23T21:22:12.431Z,70.04
2022-11-23T21:24:40.998Z,69.06
2022-11-23T21:27:13.139Z,68.60
2022-11-23T21:29:40.599Z,69.26
2022-11-23T21:32:07.959Z,68.45
2022-11-23T21:34:35.568Z,67.92
2022-11-23T21:37:03.127Z,66.43
2022-11-23T21:39:32.319Z,67.33
2022-11-23T21:41:59.658Z,67.89
2022-11-23T21:44:26.860Z,65.34
2022-11-23T21:46:54.096Z,65.18
2022-11-23T21:49:21.611Z,68.70
2022-11-23T21:51:49.378Z,70.02
2022-11-23T21:54:16.760Z,70.10
2022-11-23T21:56:46.580Z,67.88
2022-11-23T21:59:15.658Z,68.91
2022-11-23T22:01:43.223Z,69.12
2022-11-23T22:04:16.150Z,68.00
2022-11-23T22:06:45.281Z,65.55
2022-11-23T22:09:15.154Z,65.68
2022-11-23T22:11:44.442Z,66.65
2022-11-23T22:14:16.041Z,68.63
2022-11-23T22:16:47.323Z,69.74
2022-11-23T22:19:17.025Z,69.63
2022-11-23T22:21:46.611Z,68.76
2022-11-23T22:24:18.361Z,68.04
2022-11-23T22:26:47.562Z,69.33
2022-11-23T22:29:17.652Z,69.62
2022-11-23T22:31:45.050Z,70.45
2022-11-23T22:34:15.239Z,69.61
2022-11-23T22:36:42.802Z,68.91
2022-11-23T22:39:10.142Z,68.54
2022-11-23T22:41:38.439Z,68.48
2022-11-23T22:44:10.607Z,68.05
2022-11-23T22:46:39.184Z,67.58
2022-11-23T22:49:07.033Z,67.22
2022-11-23T22:51:34.407Z,67.02
2022-11-23T22:54:02.520Z,68.15
2022-11-23T22:56:31.506Z,66.68
2022-11-23T22:58:59.342Z,67.63
2022-11-23T23:01:30.564Z,67.40
2022-11-23T23:04:01.875Z,65.89
2022-11-23T23:06:36.179Z,66.43
2022-11-23T23:09:07.323Z,67.12
2022-11-23T23:11:41.119Z,68.46
2022-11-23T23:14:08.427Z,68.94
2022-11-23T23:16:35.837Z,69.05
2022-11-23T23:19:06.376Z,71.39
2022-11-23T23:21:33.811Z,72.87
2022-11-23T23:24:01.484Z,71.84
2022-11-23T23:26:29.965Z,70.33
2022-11-23T23:29:00.348Z,70.94
2022-11-23T23:31:30.104Z,71.35
2022-11-23T23:34:00.026Z,68.22
2022-11-23T23:36:27.705Z,68.24
2022-11-23T23:38:55.301Z,69.16
2022-11-23T23:41:23.079Z,68.42
2022-11-23T23:43:50.732Z,68.64
2022-11-23T23:46:19.795Z,71.24
2022-11-23T23:48:47.434Z,71.57
2022-11-23T23:51:26.585Z,69.60
2022-11-23T23:53:54.147Z,69.43
2022-11-23T23:56:29.209Z,69.17
2022-11-23T23:58:59.170Z,69.02
